<?xml version="1.0" encoding="UTF-8" standalone="no" ?>
<gpx xmlns="http://www.topografix.com/GPX/1/1" xmlns:xsi="http://www.w3.org/2001/XMLSchema-instance" xsi:schemaLocation="http://www.topografix.com/GPX/1/1 http://www.topografix.com/GPX/1/1/gpx.xsd" version="1.1" creator="VisuGPX - https://www.visugpx.com">
  <metadata>
    <name>Norvège</name>
  </metadata>
  <trk>
    <name><![CDATA[Tour d'Europe: étape 032]]></name>
    <trkseg>
      <trkpt lat="62.03897" lon="5.52371">
        <ele>46.829046</ele>
        <time>2020-07-30T07:10:41.018Z</time>
      </trkpt>
      <trkpt lat="62.03776" lon="5.52758">
        <ele>50.072359</ele>
        <time>2020-07-30T07:11:41.026Z</time>
      </trkpt>
      <trkpt lat="62.03611" lon="5.53114">
        <ele>55.030064</ele>
        <time>2020-07-30T07:12:47.020Z</time>
      </trkpt>
      <trkpt lat="62.03785" lon="5.5295">
        <ele>62.646629</ele>
        <time>2020-07-30T07:14:20.028Z</time>
      </trkpt>
      <trkpt lat="62.0396" lon="5.52747">
        <ele>67.128205</ele>
        <time>2020-07-30T07:15:33.044Z</time>
      </trkpt>
      <trkpt lat="62.04167" lon="5.52715">
        <ele>76.904745</ele>
        <time>2020-07-30T07:17:10.037Z</time>
      </trkpt>
      <trkpt lat="62.04398" lon="5.52906">
        <ele>70.409132</ele>
        <time>2020-07-30T07:18:06.051Z</time>
      </trkpt>
      <trkpt lat="62.04657" lon="5.53039">
        <ele>60.81589</ele>
        <time>2020-07-30T07:18:46.022Z</time>
      </trkpt>
      <trkpt lat="62.0487" lon="5.52921">
        <ele>57.61512</ele>
        <time>2020-07-30T07:19:32.015Z</time>
      </trkpt>
      <trkpt lat="62.05071" lon="5.5274">
        <ele>57.364935</ele>
        <time>2020-07-30T07:20:20.069Z</time>
      </trkpt>
      <trkpt lat="62.05281" lon="5.52748">
        <ele>60.362466</ele>
        <time>2020-07-30T07:21:08.035Z</time>
      </trkpt>
      <trkpt lat="62.05494" lon="5.52667">
        <ele>58.530192</ele>
        <time>2020-07-30T07:21:48.018Z</time>
      </trkpt>
      <trkpt lat="62.0569" lon="5.52503">
        <ele>57.114885</ele>
        <time>2020-07-30T07:22:28.013Z</time>
      </trkpt>
      <trkpt lat="62.059" lon="5.52454">
        <ele>57.123449</ele>
        <time>2020-07-30T07:23:10.035Z</time>
      </trkpt>
      <trkpt lat="62.06121" lon="5.52421">
        <ele>58.40511</ele>
        <time>2020-07-30T07:23:59.040Z</time>
      </trkpt>
      <trkpt lat="62.0632" lon="5.52457">
        <ele>60.770737</ele>
        <time>2020-07-30T07:24:40.018Z</time>
      </trkpt>
      <trkpt lat="62.06533" lon="5.52379">
        <ele>62.561906</ele>
        <time>2020-07-30T07:25:29.041Z</time>
      </trkpt>
      <trkpt lat="62.06772" lon="5.52365">
        <ele>67.499841</ele>
        <time>2020-07-30T07:26:24.033Z</time>
      </trkpt>
      <trkpt lat="62.06979" lon="5.5241">
        <ele>61.062302</ele>
        <time>2020-07-30T07:27:10.055Z</time>
      </trkpt>
      <trkpt lat="62.07187" lon="5.52487">
        <ele>59.767021</ele>
        <time>2020-07-30T07:28:05.050Z</time>
      </trkpt>
      <trkpt lat="62.07397" lon="5.52509">
        <ele>63.541482</ele>
        <time>2020-07-30T07:29:03.021Z</time>
      </trkpt>
      <trkpt lat="62.07394" lon="5.52943">
        <ele>65.914269</ele>
        <time>2020-07-30T07:29:59.072Z</time>
      </trkpt>
      <trkpt lat="62.07412" lon="5.53402">
        <ele>65.446833</ele>
        <time>2020-07-30T07:30:50.033Z</time>
      </trkpt>
      <trkpt lat="62.0742" lon="5.53883">
        <ele>68.98047</ele>
        <time>2020-07-30T07:31:50.020Z</time>
      </trkpt>
      <trkpt lat="62.07475" lon="5.54312">
        <ele>79.918869</ele>
        <time>2020-07-30T07:33:45.035Z</time>
      </trkpt>
      <trkpt lat="62.07361" lon="5.54688">
        <ele>85.354294</ele>
        <time>2020-07-30T07:36:05.043Z</time>
      </trkpt>
      <trkpt lat="62.072" lon="5.552">
        <ele>72.921535</ele>
        <time>2020-07-30T07:36:45.023Z</time>
      </trkpt>
      <trkpt lat="62.07099" lon="5.55648">
        <ele>64.72426</ele>
        <time>2020-07-30T07:37:15.044Z</time>
      </trkpt>
      <trkpt lat="62.06916" lon="5.55854">
        <ele>74.132561</ele>
        <time>2020-07-30T07:38:37.077Z</time>
      </trkpt>
      <trkpt lat="62.0679" lon="5.56074">
        <ele>79.912076</ele>
        <time>2020-07-30T07:40:10.073Z</time>
      </trkpt>
      <trkpt lat="62.06707" lon="5.56537">
        <ele>76.239593</ele>
        <time>2020-07-30T07:41:01.064Z</time>
      </trkpt>
      <trkpt lat="62.06638" lon="5.57049">
        <ele>78.649905</ele>
        <time>2020-07-30T07:42:00.038Z</time>
      </trkpt>
      <trkpt lat="62.06622" lon="5.57541">
        <ele>75.554202</ele>
        <time>2020-07-30T07:42:45.023Z</time>
      </trkpt>
      <trkpt lat="62.06643" lon="5.58014">
        <ele>71.283409</ele>
        <time>2020-07-30T07:43:25.033Z</time>
      </trkpt>
      <trkpt lat="62.06694" lon="5.58432">
        <ele>72.426458</ele>
        <time>2020-07-30T07:44:09.032Z</time>
      </trkpt>
      <trkpt lat="62.06779" lon="5.58845">
        <ele>81.064388</ele>
        <time>2020-07-30T07:45:27.033Z</time>
      </trkpt>
      <trkpt lat="62.06828" lon="5.59238">
        <ele>90.095323</ele>
        <time>2020-07-30T07:47:11.022Z</time>
      </trkpt>
      <trkpt lat="62.06678" lon="5.59562">
        <ele>92.287763</ele>
        <time>2020-07-30T07:48:10.033Z</time>
      </trkpt>
      <trkpt lat="62.06377" lon="5.59708">
        <ele>83.156725</ele>
        <time>2020-07-30T07:48:50.040Z</time>
      </trkpt>
      <trkpt lat="62.06063" lon="5.59874">
        <ele>73.031627</ele>
        <time>2020-07-30T07:49:32.037Z</time>
      </trkpt>
      <trkpt lat="62.05851" lon="5.59937">
        <ele>70.698304</ele>
        <time>2020-07-30T07:50:12.020Z</time>
      </trkpt>
      <trkpt lat="62.05659" lon="5.59995">
        <ele>69.043721</ele>
        <time>2020-07-30T07:50:52.033Z</time>
      </trkpt>
      <trkpt lat="62.05436" lon="5.6008">
        <ele>69.859358</ele>
        <time>2020-07-30T07:51:46.025Z</time>
      </trkpt>
      <trkpt lat="62.05231" lon="5.60231">
        <ele>74.194215</ele>
        <time>2020-07-30T07:52:58.054Z</time>
      </trkpt>
      <trkpt lat="62.05042" lon="5.60428">
        <ele>74.2683</ele>
        <time>2020-07-30T07:53:58.032Z</time>
      </trkpt>
      <trkpt lat="62.0495" lon="5.60849">
        <ele>72.328829</ele>
        <time>2020-07-30T07:54:45.021Z</time>
      </trkpt>
      <trkpt lat="62.04894" lon="5.61367">
        <ele>70.176441</ele>
        <time>2020-07-30T07:55:31.032Z</time>
      </trkpt>
      <trkpt lat="62.04963" lon="5.6188">
        <ele>70.357671</ele>
        <time>2020-07-30T07:56:17.044Z</time>
      </trkpt>
      <trkpt lat="62.05186" lon="5.62049">
        <ele>62.761213</ele>
        <time>2020-07-30T07:56:44.045Z</time>
      </trkpt>
      <trkpt lat="62.0538" lon="5.62295">
        <ele>55.355334</ele>
        <time>2020-07-30T07:57:11.045Z</time>
      </trkpt>
      <trkpt lat="62.05572" lon="5.6218">
        <ele>59.82913</ele>
        <time>2020-07-30T07:58:27.038Z</time>
      </trkpt>
      <trkpt lat="62.05765" lon="5.62035">
        <ele>74.930154</ele>
        <time>2020-07-30T08:00:24.035Z</time>
      </trkpt>
      <trkpt lat="62.05974" lon="5.62106">
        <ele>78.553662</ele>
        <time>2020-07-30T08:01:37.020Z</time>
      </trkpt>
      <trkpt lat="62.06202" lon="5.62219">
        <ele>70.103789</ele>
        <time>2020-07-30T08:02:04.026Z</time>
      </trkpt>
      <trkpt lat="62.06406" lon="5.62325">
        <ele>62.519765</ele>
        <time>2020-07-30T08:02:25.025Z</time>
      </trkpt>
      <trkpt lat="62.06646" lon="5.62418">
        <ele>54.432542</ele>
        <time>2020-07-30T08:03:02.021Z</time>
      </trkpt>
      <trkpt lat="62.0687" lon="5.62332">
        <ele>56.628405</ele>
        <time>2020-07-30T08:03:50.083Z</time>
      </trkpt>
      <trkpt lat="62.07079" lon="5.6224">
        <ele>62.197946</ele>
        <time>2020-07-30T08:05:05.051Z</time>
      </trkpt>
      <trkpt lat="62.07363" lon="5.62088">
        <ele>52.592754</ele>
        <time>2020-07-30T08:05:57.030Z</time>
      </trkpt>
      <trkpt lat="62.07557" lon="5.6187">
        <ele>51.56542</ele>
        <time>2020-07-30T08:06:38.037Z</time>
      </trkpt>
      <trkpt lat="62.0773" lon="5.61556">
        <ele>54.52812</ele>
        <time>2020-07-30T08:07:29.038Z</time>
      </trkpt>
      <trkpt lat="62.07892" lon="5.61238">
        <ele>52.651663</ele>
        <time>2020-07-30T08:08:09.041Z</time>
      </trkpt>
      <trkpt lat="62.08024" lon="5.60904">
        <ele>51.936829</ele>
        <time>2020-07-30T08:08:51.018Z</time>
      </trkpt>
      <trkpt lat="62.08131" lon="5.6056">
        <ele>50.730959</ele>
        <time>2020-07-30T08:09:31.054Z</time>
      </trkpt>
      <trkpt lat="62.0822" lon="5.60181">
        <ele>52.762988</ele>
        <time>2020-07-30T08:10:12.032Z</time>
      </trkpt>
      <trkpt lat="62.083" lon="5.5972">
        <ele>55.886654</ele>
        <time>2020-07-30T08:11:05.035Z</time>
      </trkpt>
      <trkpt lat="62.08364" lon="5.59285">
        <ele>64.890113</ele>
        <time>2020-07-30T08:12:43.036Z</time>
      </trkpt>
      <trkpt lat="62.08427" lon="5.5888">
        <ele>72.950996</ele>
        <time>2020-07-30T08:14:22.041Z</time>
      </trkpt>
      <trkpt lat="62.08492" lon="5.5846">
        <ele>78.181754</ele>
        <time>2020-07-30T08:15:34.038Z</time>
      </trkpt>
      <trkpt lat="62.08587" lon="5.58056">
        <ele>80.879957</ele>
        <time>2020-07-30T08:16:42.054Z</time>
      </trkpt>
      <trkpt lat="62.08711" lon="5.57673">
        <ele>85.756837</ele>
        <time>2020-07-30T08:17:49.046Z</time>
      </trkpt>
      <trkpt lat="62.08888" lon="5.57428">
        <ele>83.814107</ele>
        <time>2020-07-30T08:18:29.047Z</time>
      </trkpt>
      <trkpt lat="62.09116" lon="5.57412">
        <ele>70.880963</ele>
        <time>2020-07-30T08:18:53.058Z</time>
      </trkpt>
      <trkpt lat="62.09342" lon="5.57336">
        <ele>62.07938</ele>
        <time>2020-07-30T08:19:14.074Z</time>
      </trkpt>
      <trkpt lat="62.09553" lon="5.57441">
        <ele>65.87534</ele>
        <time>2020-07-30T08:20:10.032Z</time>
      </trkpt>
      <trkpt lat="62.09668" lon="5.5778">
        <ele>75.66953</ele>
        <time>2020-07-30T08:21:39.056Z</time>
      </trkpt>
      <trkpt lat="62.09741" lon="5.58177">
        <ele>83.70397</ele>
        <time>2020-07-30T08:23:15.024Z</time>
      </trkpt>
      <trkpt lat="62.09798" lon="5.58614">
        <ele>87.19192</ele>
        <time>2020-07-30T08:24:37.056Z</time>
      </trkpt>
      <trkpt lat="62.09831" lon="5.59073">
        <ele>91.256083</ele>
        <time>2020-07-30T08:25:37.041Z</time>
      </trkpt>
      <trkpt lat="62.0986" lon="5.59485">
        <ele>97.909345</ele>
        <time>2020-07-30T08:26:58.066Z</time>
      </trkpt>
      <trkpt lat="62.09893" lon="5.59911">
        <ele>105.270011</ele>
        <time>2020-07-30T08:28:23.032Z</time>
      </trkpt>
      <trkpt lat="62.09957" lon="5.60357">
        <ele>110.242081</ele>
        <time>2020-07-30T08:29:44.068Z</time>
      </trkpt>
      <trkpt lat="62.10016" lon="5.60754">
        <ele>113.395307</ele>
        <time>2020-07-30T08:30:48.034Z</time>
      </trkpt>
      <trkpt lat="62.10059" lon="5.61205">
        <ele>120.671349</ele>
        <time>2020-07-30T08:32:01.039Z</time>
      </trkpt>
      <trkpt lat="62.10111" lon="5.6166">
        <ele>123.186535</ele>
        <time>2020-07-30T08:33:16.033Z</time>
      </trkpt>
      <trkpt lat="62.10151" lon="5.62112">
        <ele>126.03066</ele>
        <time>2020-07-30T08:34:17.026Z</time>
      </trkpt>
      <trkpt lat="62.10159" lon="5.62571">
        <ele>129.726985</ele>
        <time>2020-07-30T08:35:17.045Z</time>
      </trkpt>
      <trkpt lat="62.1016" lon="5.62991">
        <ele>135.287214</ele>
        <time>2020-07-30T08:36:17.057Z</time>
      </trkpt>
      <trkpt lat="62.10164" lon="5.63483">
        <ele>139.392664</ele>
        <time>2020-07-30T08:37:20.037Z</time>
      </trkpt>
      <trkpt lat="62.10181" lon="5.63959">
        <ele>141.423973</ele>
        <time>2020-07-30T08:38:20.071Z</time>
      </trkpt>
      <trkpt lat="62.10206" lon="5.64444">
        <ele>138.56833</ele>
        <time>2020-07-30T08:39:16.049Z</time>
      </trkpt>
      <trkpt lat="62.10276" lon="5.64856">
        <ele>133.482761</ele>
        <time>2020-07-30T08:39:56.030Z</time>
      </trkpt>
      <trkpt lat="62.10399" lon="5.65297">
        <ele>130.069266</ele>
        <time>2020-07-30T08:40:38.041Z</time>
      </trkpt>
      <trkpt lat="62.10527" lon="5.65759">
        <ele>124.598654</ele>
        <time>2020-07-30T08:41:18.029Z</time>
      </trkpt>
      <trkpt lat="62.10662" lon="5.66251">
        <ele>118.117689</ele>
        <time>2020-07-30T08:41:58.024Z</time>
      </trkpt>
      <trkpt lat="62.1081" lon="5.66739">
        <ele>107.92118</ele>
        <time>2020-07-30T08:42:31.053Z</time>
      </trkpt>
      <trkpt lat="62.1101" lon="5.66988">
        <ele>94.07663</ele>
        <time>2020-07-30T08:42:52.035Z</time>
      </trkpt>
      <trkpt lat="62.1129" lon="5.67111">
        <ele>71.379901</ele>
        <time>2020-07-30T08:43:12.023Z</time>
      </trkpt>
      <trkpt lat="62.11526" lon="5.67206">
        <ele>57.387763</ele>
        <time>2020-07-30T08:43:32.053Z</time>
      </trkpt>
      <trkpt lat="62.11821" lon="5.67266">
        <ele>52.868091</ele>
        <time>2020-07-30T08:44:09.032Z</time>
      </trkpt>
      <trkpt lat="62.12057" lon="5.67273">
        <ele>51.465638</ele>
        <time>2020-07-30T08:44:49.058Z</time>
      </trkpt>
      <trkpt lat="62.12291" lon="5.67287">
        <ele>52.643599</ele>
        <time>2020-07-30T08:45:46.040Z</time>
      </trkpt>
      <trkpt lat="62.12498" lon="5.67268">
        <ele>52.475134</ele>
        <time>2020-07-30T08:46:30.052Z</time>
      </trkpt>
      <trkpt lat="62.12697" lon="5.67297">
        <ele>52.93369</ele>
        <time>2020-07-30T08:47:12.051Z</time>
      </trkpt>
      <trkpt lat="62.12935" lon="5.67388">
        <ele>54.163937</ele>
        <time>2020-07-30T08:48:07.056Z</time>
      </trkpt>
      <trkpt lat="62.13134" lon="5.67453">
        <ele>54.659146</ele>
        <time>2020-07-30T08:48:51.031Z</time>
      </trkpt>
      <trkpt lat="62.1332" lon="5.67516">
        <ele>53.181348</ele>
        <time>2020-07-30T08:49:31.048Z</time>
      </trkpt>
      <trkpt lat="62.13567" lon="5.67613">
        <ele>55.469207</ele>
        <time>2020-07-30T08:50:30.040Z</time>
      </trkpt>
      <trkpt lat="62.13797" lon="5.6756">
        <ele>55.595831</ele>
        <time>2020-07-30T08:51:29.052Z</time>
      </trkpt>
      <trkpt lat="62.13959" lon="5.67333">
        <ele>52.51424</ele>
        <time>2020-07-30T08:52:09.030Z</time>
      </trkpt>
      <trkpt lat="62.14163" lon="5.6716">
        <ele>53.115949</ele>
        <time>2020-07-30T08:52:58.051Z</time>
      </trkpt>
      <trkpt lat="62.14407" lon="5.67059">
        <ele>53.529769</ele>
        <time>2020-07-30T08:53:55.038Z</time>
      </trkpt>
      <trkpt lat="62.1461" lon="5.66849">
        <ele>54.765477</ele>
        <time>2020-07-30T08:54:53.060Z</time>
      </trkpt>
      <trkpt lat="62.14793" lon="5.66449">
        <ele>54.377186</ele>
        <time>2020-07-30T08:55:33.082Z</time>
      </trkpt>
      <trkpt lat="62.15036" lon="5.66255">
        <ele>53.740568</ele>
        <time>2020-07-30T08:56:15.026Z</time>
      </trkpt>
      <trkpt lat="62.15251" lon="5.66038">
        <ele>51.124403</ele>
        <time>2020-07-30T08:56:55.065Z</time>
      </trkpt>
      <trkpt lat="62.15463" lon="5.6581">
        <ele>51.498113</ele>
        <time>2020-07-30T08:57:35.064Z</time>
      </trkpt>
      <trkpt lat="62.1569" lon="5.65587">
        <ele>53.008601</ele>
        <time>2020-07-30T08:58:15.047Z</time>
      </trkpt>
      <trkpt lat="62.15917" lon="5.65349">
        <ele>53.841363</ele>
        <time>2020-07-30T08:58:57.027Z</time>
      </trkpt>
      <trkpt lat="62.16129" lon="5.65131">
        <ele>52.842086</ele>
        <time>2020-07-30T08:59:37.040Z</time>
      </trkpt>
      <trkpt lat="62.16312" lon="5.64836">
        <ele>55.656392</ele>
        <time>2020-07-30T09:00:17.069Z</time>
      </trkpt>
      <trkpt lat="62.16517" lon="5.64594">
        <ele>55.832494</ele>
        <time>2020-07-30T09:00:57.055Z</time>
      </trkpt>
      <trkpt lat="62.16716" lon="5.64445">
        <ele>55.638675</ele>
        <time>2020-07-30T09:01:57.032Z</time>
      </trkpt>
      <trkpt lat="62.16918" lon="5.64304">
        <ele>52.919947</ele>
        <time>2020-07-30T09:02:57.043Z</time>
      </trkpt>
      <trkpt lat="62.17069" lon="5.64518">
        <ele>55.669897</ele>
        <time>2020-07-30T09:31:23.452Z</time>
      </trkpt>
      <trkpt lat="62.173" lon="5.64564">
        <ele>63.925935</ele>
        <time>2020-07-30T09:32:31.448Z</time>
      </trkpt>
      <trkpt lat="62.17535" lon="5.64531">
        <ele>64.874797</ele>
        <time>2020-07-30T09:33:29.468Z</time>
      </trkpt>
      <trkpt lat="62.19135" lon="5.63451">
        <ele>58.348474</ele>
        <time>2020-07-30T09:42:54.379Z</time>
      </trkpt>
      <trkpt lat="62.19184" lon="5.63056">
        <ele>57.802159</ele>
        <time>2020-07-30T09:44:33.383Z</time>
      </trkpt>
      <trkpt lat="62.19189" lon="5.62577">
        <ele>66.078706</ele>
        <time>2020-07-30T09:45:47.381Z</time>
      </trkpt>
      <trkpt lat="62.19066" lon="5.62176">
        <ele>67.77175</ele>
        <time>2020-07-30T09:46:57.390Z</time>
      </trkpt>
      <trkpt lat="62.19049" lon="5.61726">
        <ele>66.5481</ele>
        <time>2020-07-30T09:47:36.393Z</time>
      </trkpt>
      <trkpt lat="62.19091" lon="5.61297">
        <ele>63.227951</ele>
        <time>2020-07-30T09:48:14.419Z</time>
      </trkpt>
      <trkpt lat="62.19042" lon="5.60856">
        <ele>68.721047</ele>
        <time>2020-07-30T09:49:16.369Z</time>
      </trkpt>
      <trkpt lat="62.1905" lon="5.60425">
        <ele>86.640207</ele>
        <time>2020-07-30T09:50:38.407Z</time>
      </trkpt>
      <trkpt lat="62.19148" lon="5.60059">
        <ele>88.012816</ele>
        <time>2020-07-30T09:52:19.401Z</time>
      </trkpt>
      <trkpt lat="62.19171" lon="5.59626">
        <ele>92.494657</ele>
        <time>2020-07-30T09:53:44.372Z</time>
      </trkpt>
      <trkpt lat="62.19155" lon="5.59126">
        <ele>83.795997</ele>
        <time>2020-07-30T09:54:27.404Z</time>
      </trkpt>
      <trkpt lat="62.19318" lon="5.59121">
        <ele>67.187982</ele>
        <time>2020-07-30T09:54:49.448Z</time>
      </trkpt>
      <trkpt lat="62.19341" lon="5.58637">
        <ele>71.351469</ele>
        <time>2020-07-30T09:55:39.413Z</time>
      </trkpt>
      <trkpt lat="62.19488" lon="5.58398">
        <ele>65.910572</ele>
        <time>2020-07-30T09:56:27.406Z</time>
      </trkpt>
      <trkpt lat="62.19695" lon="5.58183">
        <ele>62.168726</ele>
        <time>2020-07-30T09:57:14.379Z</time>
      </trkpt>
      <trkpt lat="62.19835" lon="5.57837">
        <ele>62.459189</ele>
        <time>2020-07-30T09:58:03.419Z</time>
      </trkpt>
      <trkpt lat="62.20038" lon="5.57635">
        <ele>63.083363</ele>
        <time>2020-07-30T09:58:48.421Z</time>
      </trkpt>
      <trkpt lat="62.20247" lon="5.57457">
        <ele>56.029861</ele>
        <time>2020-07-30T09:59:32.376Z</time>
      </trkpt>
      <trkpt lat="62.20437" lon="5.57532">
        <ele>57.230923</ele>
        <time>2020-07-30T10:00:24.389Z</time>
      </trkpt>
      <trkpt lat="62.20623" lon="5.57295">
        <ele>60.119291</ele>
        <time>2020-07-30T10:01:27.385Z</time>
      </trkpt>
      <trkpt lat="62.20701" lon="5.57331">
        <ele>62.976628</ele>
        <time>2020-07-30T10:02:51.397Z</time>
      </trkpt>
      <trkpt lat="62.20791" lon="5.57707">
        <ele>77.729511</ele>
        <time>2020-07-30T10:04:46.402Z</time>
      </trkpt>
      <trkpt lat="62.20955" lon="5.57864">
        <ele>90.646451</ele>
        <time>2020-07-30T10:06:33.425Z</time>
      </trkpt>
      <trkpt lat="62.21147" lon="5.57829">
        <ele>106.336824</ele>
        <time>2020-07-30T10:08:57.390Z</time>
      </trkpt>
      <trkpt lat="62.21332" lon="5.57906">
        <ele>124.280364</ele>
        <time>2020-07-30T10:11:35.414Z</time>
      </trkpt>
      <trkpt lat="62.21506" lon="5.57822">
        <ele>144.291472</ele>
        <time>2020-07-30T10:14:16.384Z</time>
      </trkpt>
      <trkpt lat="62.21637" lon="5.577">
        <ele>158.175717</ele>
        <time>2020-07-30T10:16:50.439Z</time>
      </trkpt>
      <trkpt lat="62.2158" lon="5.58097">
        <ele>173.252002</ele>
        <time>2020-07-30T10:19:20.405Z</time>
      </trkpt>
      <trkpt lat="62.21492" lon="5.58461">
        <ele>189.425749</ele>
        <time>2020-07-30T10:21:50.397Z</time>
      </trkpt>
      <trkpt lat="62.2149" lon="5.59239">
        <ele>220.417032</ele>
        <time>2020-07-30T10:31:30.397Z</time>
      </trkpt>
      <trkpt lat="62.21723" lon="5.60177">
        <ele>239.249207</ele>
        <time>2020-07-30T10:36:05.392Z</time>
      </trkpt>
      <trkpt lat="62.21751" lon="5.60742">
        <ele>222.692048</ele>
        <time>2020-07-30T10:36:25.391Z</time>
      </trkpt>
      <trkpt lat="62.21782" lon="5.61421">
        <ele>188.998404</ele>
        <time>2020-07-30T10:36:46.401Z</time>
      </trkpt>
      <trkpt lat="62.21865" lon="5.62017">
        <ele>157.932412</ele>
        <time>2020-07-30T10:37:06.384Z</time>
      </trkpt>
      <trkpt lat="62.21846" lon="5.62598">
        <ele>131.185441</ele>
        <time>2020-07-30T10:37:26.390Z</time>
      </trkpt>
      <trkpt lat="62.21782" lon="5.63137">
        <ele>108.013466</ele>
        <time>2020-07-30T10:37:46.391Z</time>
      </trkpt>
      <trkpt lat="62.21722" lon="5.63749">
        <ele>81.458027</ele>
        <time>2020-07-30T10:38:07.408Z</time>
      </trkpt>
      <trkpt lat="62.2167" lon="5.64305">
        <ele>62.443386</ele>
        <time>2020-07-30T10:38:27.396Z</time>
      </trkpt>
      <trkpt lat="62.21592" lon="5.64806">
        <ele>52.296006</ele>
        <time>2020-07-30T10:38:47.398Z</time>
      </trkpt>
      <trkpt lat="62.21588" lon="5.65322">
        <ele>53.161846</ele>
        <time>2020-07-30T10:39:14.399Z</time>
      </trkpt>
      <trkpt lat="62.21577" lon="5.65805">
        <ele>58.989876</ele>
        <time>2020-07-30T10:40:21.384Z</time>
      </trkpt>
      <trkpt lat="62.21549" lon="5.6625">
        <ele>70.588302</ele>
        <time>2020-07-30T10:41:44.384Z</time>
      </trkpt>
      <trkpt lat="62.21528" lon="5.66667">
        <ele>84.285206</ele>
        <time>2020-07-30T10:43:53.424Z</time>
      </trkpt>
      <trkpt lat="62.21503" lon="5.67085">
        <ele>93.735089</ele>
        <time>2020-07-30T10:45:49.410Z</time>
      </trkpt>
      <trkpt lat="62.21475" lon="5.67541">
        <ele>103.481101</ele>
        <time>2020-07-30T10:47:37.391Z</time>
      </trkpt>
      <trkpt lat="62.21452" lon="5.67946">
        <ele>116.223512</ele>
        <time>2020-07-30T10:49:46.401Z</time>
      </trkpt>
      <trkpt lat="62.21427" lon="5.68363">
        <ele>129.697995</ele>
        <time>2020-07-30T10:51:39.399Z</time>
      </trkpt>
      <trkpt lat="62.21476" lon="5.68783">
        <ele>149.631879</ele>
        <time>2020-07-30T10:54:02.397Z</time>
      </trkpt>
      <trkpt lat="62.21556" lon="5.69155">
        <ele>162.048627</ele>
        <time>2020-07-30T10:56:17.396Z</time>
      </trkpt>
      <trkpt lat="62.21747" lon="5.69354">
        <ele>160.343547</ele>
        <time>2020-07-30T10:57:27.404Z</time>
      </trkpt>
      <trkpt lat="62.2192" lon="5.69649">
        <ele>149.330216</ele>
        <time>2020-07-30T10:58:10.405Z</time>
      </trkpt>
      <trkpt lat="62.22034" lon="5.70047">
        <ele>159.911311</ele>
        <time>2020-07-30T10:59:36.397Z</time>
      </trkpt>
      <trkpt lat="62.22124" lon="5.7041">
        <ele>174.197768</ele>
        <time>2020-07-30T11:02:02.391Z</time>
      </trkpt>
      <trkpt lat="62.22221" lon="5.70765">
        <ele>183.715211</ele>
        <time>2020-07-30T11:04:14.402Z</time>
      </trkpt>
      <trkpt lat="62.22373" lon="5.71023">
        <ele>192.633451</ele>
        <time>2020-07-30T11:05:50.401Z</time>
      </trkpt>
      <trkpt lat="62.22541" lon="5.71295">
        <ele>202.016348</ele>
        <time>2020-07-30T11:07:44.382Z</time>
      </trkpt>
      <trkpt lat="62.22667" lon="5.71623">
        <ele>212.069868</ele>
        <time>2020-07-30T11:09:41.408Z</time>
      </trkpt>
      <trkpt lat="62.22787" lon="5.71954">
        <ele>231.106443</ele>
        <time>2020-07-30T11:11:50.396Z</time>
      </trkpt>
      <trkpt lat="62.22901" lon="5.72282">
        <ele>240.908009</ele>
        <time>2020-07-30T11:14:19.406Z</time>
      </trkpt>
      <trkpt lat="62.23003" lon="5.72651">
        <ele>252.583422</ele>
        <time>2020-07-30T11:16:53.390Z</time>
      </trkpt>
      <trkpt lat="62.23132" lon="5.72975">
        <ele>258.180719</ele>
        <time>2020-07-30T11:18:53.419Z</time>
      </trkpt>
      <trkpt lat="62.23289" lon="5.73336">
        <ele>252.305198</ele>
        <time>2020-07-30T11:19:43.405Z</time>
      </trkpt>
      <trkpt lat="62.2344" lon="5.73673">
        <ele>244.03196</ele>
        <time>2020-07-30T11:20:04.387Z</time>
      </trkpt>
      <trkpt lat="62.23573" lon="5.73971">
        <ele>237.409206</ele>
        <time>2020-07-30T11:20:24.387Z</time>
      </trkpt>
      <trkpt lat="62.23748" lon="5.74289">
        <ele>227.383844</ele>
        <time>2020-07-30T11:20:48.410Z</time>
      </trkpt>
      <trkpt lat="62.23922" lon="5.74614">
        <ele>213.598623</ele>
        <time>2020-07-30T11:21:08.401Z</time>
      </trkpt>
      <trkpt lat="62.24076" lon="5.75049">
        <ele>197.845321</ele>
        <time>2020-07-30T11:21:29.400Z</time>
      </trkpt>
      <trkpt lat="62.24234" lon="5.755">
        <ele>189.857643</ele>
        <time>2020-07-30T11:22:11.389Z</time>
      </trkpt>
      <trkpt lat="62.24398" lon="5.75964">
        <ele>185.164301</ele>
        <time>2020-07-30T11:22:51.392Z</time>
      </trkpt>
      <trkpt lat="62.24513" lon="5.7638">
        <ele>172.221004</ele>
        <time>2020-07-30T11:23:19.404Z</time>
      </trkpt>
      <trkpt lat="62.24563" lon="5.7686">
        <ele>149.404361</ele>
        <time>2020-07-30T11:23:40.397Z</time>
      </trkpt>
      <trkpt lat="62.24601" lon="5.77299">
        <ele>126.388666</ele>
        <time>2020-07-30T11:24:00.409Z</time>
      </trkpt>
      <trkpt lat="62.24701" lon="5.77689">
        <ele>101.564191</ele>
        <time>2020-07-30T11:24:20.421Z</time>
      </trkpt>
      <trkpt lat="62.24889" lon="5.78036">
        <ele>75.708695</ele>
        <time>2020-07-30T11:24:40.396Z</time>
      </trkpt>
      <trkpt lat="62.25075" lon="5.78409">
        <ele>57.515782</ele>
        <time>2020-07-30T11:25:01.397Z</time>
      </trkpt>
      <trkpt lat="62.25256" lon="5.78754">
        <ele>51.13985</ele>
        <time>2020-07-30T11:25:30.389Z</time>
      </trkpt>
      <trkpt lat="62.2542" lon="5.79067">
        <ele>57.321511</ele>
        <time>2020-07-30T11:26:32.398Z</time>
      </trkpt>
      <trkpt lat="62.25576" lon="5.79347">
        <ele>66.459994</ele>
        <time>2020-07-30T11:28:28.400Z</time>
      </trkpt>
      <trkpt lat="62.25757" lon="5.79571">
        <ele>68.931992</ele>
        <time>2020-07-30T11:29:27.413Z</time>
      </trkpt>
      <trkpt lat="62.25942" lon="5.79689">
        <ele>72.137673</ele>
        <time>2020-07-30T11:30:54.406Z</time>
      </trkpt>
      <trkpt lat="62.26146" lon="5.79507">
        <ele>69.736636</ele>
        <time>2020-07-30T11:31:50.397Z</time>
      </trkpt>
      <trkpt lat="62.26345" lon="5.79769">
        <ele>70.137446</ele>
        <time>2020-07-30T11:32:55.432Z</time>
      </trkpt>
      <trkpt lat="62.2653" lon="5.80108">
        <ele>66.224962</ele>
        <time>2020-07-30T11:33:33.415Z</time>
      </trkpt>
      <trkpt lat="62.26707" lon="5.80386">
        <ele>73.102965</ele>
        <time>2020-07-30T11:35:09.439Z</time>
      </trkpt>
      <trkpt lat="62.26885" lon="5.80602">
        <ele>76.202593</ele>
        <time>2020-07-30T11:36:31.410Z</time>
      </trkpt>
      <trkpt lat="62.26974" lon="5.804">
        <ele>76.108909</ele>
        <time>2020-07-30T11:37:38.408Z</time>
      </trkpt>
      <trkpt lat="62.2707" lon="5.80264">
        <ele>82.828107</ele>
        <time>2020-07-30T11:46:28.418Z</time>
      </trkpt>
      <trkpt lat="62.2699" lon="5.79803">
        <ele>70.376779</ele>
        <time>2020-07-30T11:47:19.400Z</time>
      </trkpt>
      <trkpt lat="62.27109" lon="5.7942">
        <ele>65.716981</ele>
        <time>2020-07-30T11:48:07.447Z</time>
      </trkpt>
      <trkpt lat="62.27321" lon="5.79434">
        <ele>72.969006</ele>
        <time>2020-07-30T11:49:12.404Z</time>
      </trkpt>
      <trkpt lat="62.27487" lon="5.79748">
        <ele>74.498017</ele>
        <time>2020-07-30T11:50:11.405Z</time>
      </trkpt>
      <trkpt lat="62.27645" lon="5.79839">
        <ele>64.017433</ele>
        <time>2020-07-30T11:50:58.410Z</time>
      </trkpt>
      <trkpt lat="62.27801" lon="5.79995">
        <ele>64.522325</ele>
        <time>2020-07-30T11:52:23.399Z</time>
      </trkpt>
      <trkpt lat="62.27872" lon="5.80395">
        <ele>72.057157</ele>
        <time>2020-07-30T11:53:46.414Z</time>
      </trkpt>
      <trkpt lat="62.27915" lon="5.80826">
        <ele>77.950815</ele>
        <time>2020-07-30T11:55:03.423Z</time>
      </trkpt>
      <trkpt lat="62.27948" lon="5.81316">
        <ele>76.93503</ele>
        <time>2020-07-30T11:55:59.439Z</time>
      </trkpt>
      <trkpt lat="62.28003" lon="5.8176">
        <ele>73.862771</ele>
        <time>2020-07-30T11:56:41.409Z</time>
      </trkpt>
      <trkpt lat="62.28127" lon="5.82144">
        <ele>69.530083</ele>
        <time>2020-07-30T11:57:31.427Z</time>
      </trkpt>
      <trkpt lat="62.28169" lon="5.82634">
        <ele>57.5508</ele>
        <time>2020-07-30T11:58:04.416Z</time>
      </trkpt>
      <trkpt lat="62.28183" lon="5.83009">
        <ele>63.880412</ele>
        <time>2020-07-30T11:59:36.402Z</time>
      </trkpt>
      <trkpt lat="62.28309" lon="5.83461">
        <ele>63.801963</ele>
        <time>2020-07-30T12:00:33.438Z</time>
      </trkpt>
      <trkpt lat="62.28443" lon="5.83859">
        <ele>60.895893</ele>
        <time>2020-07-30T12:01:15.384Z</time>
      </trkpt>
      <trkpt lat="62.286" lon="5.84127">
        <ele>68.105254</ele>
        <time>2020-07-30T12:02:31.405Z</time>
      </trkpt>
      <trkpt lat="62.28737" lon="5.8447">
        <ele>65.164687</ele>
        <time>2020-07-30T12:03:27.394Z</time>
      </trkpt>
      <trkpt lat="62.2893" lon="5.84791">
        <ele>63.573498</ele>
        <time>2020-07-30T12:04:21.410Z</time>
      </trkpt>
      <trkpt lat="62.29095" lon="5.85097">
        <ele>67.713863</ele>
        <time>2020-07-30T12:05:13.389Z</time>
      </trkpt>
      <trkpt lat="62.2928" lon="5.85047">
        <ele>72.107591</ele>
        <time>2020-07-30T12:06:10.394Z</time>
      </trkpt>
      <trkpt lat="62.29455" lon="5.84796">
        <ele>77.562951</ele>
        <time>2020-07-30T12:06:53.381Z</time>
      </trkpt>
      <trkpt lat="62.2961" lon="5.84522">
        <ele>72.71875</ele>
        <time>2020-07-30T12:07:34.396Z</time>
      </trkpt>
      <trkpt lat="62.29763" lon="5.84237">
        <ele>71.036565</ele>
        <time>2020-07-30T12:08:15.391Z</time>
      </trkpt>
      <trkpt lat="62.29922" lon="5.83983">
        <ele>67.630249</ele>
        <time>2020-07-30T12:08:59.398Z</time>
      </trkpt>
      <trkpt lat="62.3014" lon="5.84453">
        <ele>59.78524</ele>
        <time>2020-07-30T12:10:06.397Z</time>
      </trkpt>
      <trkpt lat="62.30203" lon="5.84909">
        <ele>65.67955</ele>
        <time>2020-07-30T12:10:53.432Z</time>
      </trkpt>
      <trkpt lat="62.30347" lon="5.85275">
        <ele>69.011721</ele>
        <time>2020-07-30T12:11:53.413Z</time>
      </trkpt>
      <trkpt lat="62.3053" lon="5.85597">
        <ele>68.998701</ele>
        <time>2020-07-30T12:12:50.398Z</time>
      </trkpt>
      <trkpt lat="62.3072" lon="5.8545">
        <ele>70.565684</ele>
        <time>2020-07-30T12:13:50.392Z</time>
      </trkpt>
      <trkpt lat="62.30817" lon="5.85065">
        <ele>68.026873</ele>
        <time>2020-07-30T12:14:39.421Z</time>
      </trkpt>
      <trkpt lat="62.31017" lon="5.85053">
        <ele>62.605298</ele>
        <time>2020-07-30T12:15:37.410Z</time>
      </trkpt>
      <trkpt lat="62.31079" lon="5.85479">
        <ele>63.414285</ele>
        <time>2020-07-30T12:16:36.389Z</time>
      </trkpt>
      <trkpt lat="62.31234" lon="5.85828">
        <ele>64.837181</ele>
        <time>2020-07-30T12:17:40.403Z</time>
      </trkpt>
      <trkpt lat="62.31404" lon="5.86054">
        <ele>67.572837</ele>
        <time>2020-07-30T12:18:58.420Z</time>
      </trkpt>
      <trkpt lat="62.31589" lon="5.8581">
        <ele>64.518569</ele>
        <time>2020-07-30T12:19:49.436Z</time>
      </trkpt>
      <trkpt lat="62.31738" lon="5.85728">
        <ele>62.988925</ele>
        <time>2020-07-30T12:21:06.399Z</time>
      </trkpt>
      <trkpt lat="62.31884" lon="5.86072">
        <ele>59.692103</ele>
        <time>2020-07-30T12:21:58.396Z</time>
      </trkpt>
      <trkpt lat="62.32013" lon="5.86469">
        <ele>59.983896</ele>
        <time>2020-07-30T12:22:55.417Z</time>
      </trkpt>
      <trkpt lat="62.3223" lon="5.86637">
        <ele>66.710832</ele>
        <time>2020-07-30T12:23:54.405Z</time>
      </trkpt>
      <trkpt lat="62.32471" lon="5.86557">
        <ele>74.708097</ele>
        <time>2020-07-30T12:24:47.401Z</time>
      </trkpt>
      <trkpt lat="62.32692" lon="5.86498">
        <ele>73.875235</ele>
        <time>2020-07-30T12:25:50.420Z</time>
      </trkpt>
      <trkpt lat="62.32907" lon="5.86338">
        <ele>78.233357</ele>
        <time>2020-07-30T12:27:11.400Z</time>
      </trkpt>
      <trkpt lat="62.33105" lon="5.8615">
        <ele>81.184816</ele>
        <time>2020-07-30T12:28:15.406Z</time>
      </trkpt>
      <trkpt lat="62.33286" lon="5.85831">
        <ele>73.906097</ele>
        <time>2020-07-30T12:29:10.406Z</time>
      </trkpt>
      <trkpt lat="62.33539" lon="5.85576">
        <ele>62.580444</ele>
        <time>2020-07-30T12:29:53.387Z</time>
      </trkpt>
      <trkpt lat="62.33724" lon="5.85434">
        <ele>59.608969</ele>
        <time>2020-07-30T12:32:24.438Z</time>
      </trkpt>
      <trkpt lat="62.33729" lon="5.85375">
        <ele>50.995869</ele>
        <time>2020-07-30T13:11:51.388Z</time>
      </trkpt>
      <trkpt lat="62.33937" lon="5.85216">
        <ele>52.471632</ele>
        <time>2020-07-30T13:13:05.397Z</time>
      </trkpt>
      <trkpt lat="62.34099" lon="5.85062">
        <ele>51.565001</ele>
        <time>2020-07-30T13:14:13.393Z</time>
      </trkpt>
      <trkpt lat="62.34049" lon="5.85255">
        <ele>55.428795</ele>
        <time>2020-07-30T13:23:38.425Z</time>
      </trkpt>
      <trkpt lat="62.34112" lon="5.85669">
        <ele>65.222588</ele>
        <time>2020-07-30T13:25:18.399Z</time>
      </trkpt>
      <trkpt lat="62.34037" lon="5.8604">
        <ele>76.974813</ele>
        <time>2020-07-30T13:27:12.386Z</time>
      </trkpt>
      <trkpt lat="62.33899" lon="5.86321">
        <ele>87.321705</ele>
        <time>2020-07-30T13:29:07.425Z</time>
      </trkpt>
      <trkpt lat="62.339" lon="5.86722">
        <ele>99.857053</ele>
        <time>2020-07-30T13:31:08.406Z</time>
      </trkpt>
      <trkpt lat="62.33897" lon="5.871">
        <ele>114.630261</ele>
        <time>2020-07-30T13:33:20.434Z</time>
      </trkpt>
      <trkpt lat="62.33899" lon="5.8744">
        <ele>120.896473</ele>
        <time>2020-07-30T13:35:45.383Z</time>
      </trkpt>
    </trkseg>
  </trk>
</gpx>